createdAt,value
2018-12-10T00:00:30.338Z,881.42
2018-12-10T00:01:29.997Z,881.42
2018-12-10T00:02:30.344Z,881.43
2018-12-10T00:03:30.335Z,881.43
2018-12-10T00:04:30.322Z,881.44
2018-12-10T00:05:30.288Z,881.49
2018-12-10T00:06:30.289Z,881.45
2018-12-10T00:07:30.270Z,881.49
2018-12-10T00:08:29.944Z,881.50
2018-12-10T00:09:29.904Z,881.52
2018-12-10T00:10:30.233Z,881.52
2018-12-10T00:11:30.244Z,881.53
2018-12-10T00:12:29.881Z,881.57
2018-12-10T00:13:29.913Z,881.57
2018-12-10T00:14:30.211Z,881.58
2018-12-10T00:15:30.260Z,881.64
2018-12-10T00:16:29.857Z,881.64
2018-12-10T00:17:30.184Z,881.66
2018-12-10T00:18:29.832Z,881.72
2018-12-10T00:20:30.221Z,881.73
2018-12-10T00:23:02.041Z,881.76
2018-12-10T00:24:01.855Z,881.82
2018-12-10T00:25:55.857Z,881.78
2018-12-10T00:26:55.208Z,881.82
2018-12-10T00:28:49.175Z,881.79
2018-12-10T00:29:48.894Z,881.83
2018-12-10T00:31:41.900Z,881.86
2018-12-10T00:32:41.913Z,881.86
2018-12-10T00:34:35.526Z,881.87
2018-12-10T00:35:35.601Z,881.87
2018-12-10T00:37:29.071Z,881.89
2018-12-10T00:38:28.965Z,881.95
2018-12-10T00:40:22.207Z,881.94
2018-12-10T00:41:22.273Z,881.95
2018-12-10T00:43:15.653Z,881.95
2018-12-10T00:44:15.274Z,881.95
2018-12-10T00:46:09.236Z,882.00
2018-12-10T00:47:08.978Z,882.04
2018-12-10T00:49:02.001Z,882.06
2018-12-10T00:50:01.967Z,882.07
2018-12-10T00:51:55.901Z,882.06
2018-12-10T00:52:55.345Z,882.06
2018-12-10T00:54:49.039Z,882.10
2018-12-10T00:55:48.682Z,882.17
2018-12-10T00:57:42.247Z,882.16
2018-12-10T00:58:42.369Z,882.16
2018-12-10T01:00:35.474Z,882.24
2018-12-10T01:01:35.674Z,882.24
2018-12-10T01:03:29.217Z,882.20
2018-12-10T01:04:28.680Z,882.20
2018-12-10T01:06:22.152Z,882.26
2018-12-10T01:07:22.040Z,882.20
2018-12-10T01:09:15.845Z,882.14
2018-12-10T01:10:15.354Z,882.11
2018-12-10T01:12:09.338Z,882.24
2018-12-10T01:13:09.074Z,882.26
2018-12-10T01:15:02.875Z,882.26
2018-12-10T01:16:02.081Z,882.24
2018-12-10T01:17:56.353Z,882.25
2018-12-10T01:18:55.430Z,882.24
2018-12-10T01:20:48.985Z,882.28
2018-12-10T01:21:49.086Z,882.25
2018-12-10T01:23:42.124Z,882.29
2018-12-10T01:24:42.431Z,882.31
2018-12-10T01:26:36.381Z,882.33
2018-12-10T01:27:35.935Z,882.33
2018-12-10T01:29:29.333Z,882.35
2018-12-10T01:30:29.290Z,882.28
2018-12-10T01:32:23.303Z,882.35
2018-12-10T01:33:23.109Z,882.31
2018-12-10T01:35:16.911Z,882.30
2018-12-10T01:36:16.443Z,882.26
2018-12-10T01:38:10.007Z,882.23
2018-12-10T01:39:10.160Z,882.25
2018-12-10T01:41:13.064Z,882.31
2018-12-10T01:42:04.417Z,882.29
2018-12-10T01:43:04.590Z,882.28
2018-12-10T01:44:08.221Z,882.29
2018-12-10T01:47:31.530Z,882.30
2018-12-10T01:48:31.835Z,882.34
2018-12-10T01:50:28.787Z,882.33
2018-12-10T01:51:27.144Z,882.34
2018-12-10T01:52:25.637Z,882.30
2018-12-10T01:53:27.227Z,882.33
2018-12-10T01:54:25.011Z,882.30
2018-12-10T01:55:25.003Z,882.35
2018-12-10T01:57:57.365Z,882.25
2018-12-10T01:58:57.151Z,882.25
2018-12-10T02:00:50.845Z,882.24
2018-12-10T02:01:50.802Z,882.22
2018-12-10T02:03:44.425Z,882.24
2018-12-10T02:04:44.153Z,882.25
2018-12-10T02:07:37.141Z,882.28
2018-12-10T02:09:30.810Z,882.31
2018-12-10T02:10:30.604Z,882.26
2018-12-10T02:12:24.058Z,882.27
2018-12-10T02:13:23.953Z,882.24
2018-12-10T02:15:18.401Z,882.24
2018-12-10T02:16:17.685Z,882.21
2018-12-10T02:18:10.998Z,882.26
2018-12-10T02:19:11.018Z,882.25
2018-12-10T02:21:04.189Z,882.23
2018-12-10T02:22:04.319Z,882.25
2018-12-10T02:23:57.704Z,882.31
2018-12-10T02:24:57.697Z,882.28
2018-12-10T02:26:51.827Z,882.27
2018-12-10T02:27:51.037Z,882.28
2018-12-10T02:29:44.425Z,882.20
2018-12-10T02:30:44.425Z,882.33
2018-12-10T02:32:37.776Z,882.31
2018-12-10T02:33:37.413Z,882.33
2018-12-10T02:35:31.157Z,882.38
2018-12-10T02:36:31.112Z,882.36
2018-12-10T02:38:24.688Z,882.37
2018-12-10T02:39:24.135Z,882.31
2018-12-10T02:41:18.418Z,882.36
2018-12-10T02:42:17.791Z,882.40
2018-12-10T02:44:11.057Z,882.41
2018-12-10T02:45:10.787Z,882.41
2018-12-10T02:47:04.435Z,882.43
2018-12-10T02:48:04.455Z,882.45
2018-12-10T02:49:57.978Z,882.45
2018-12-10T02:50:57.786Z,882.42
2018-12-10T02:52:52.155Z,882.44
2018-12-10T02:53:51.497Z,882.41
2018-12-10T02:55:44.701Z,882.44
2018-12-10T02:56:44.874Z,882.41
2018-12-10T02:58:38.202Z,882.43
2018-12-10T02:59:38.238Z,882.47
2018-12-10T03:01:31.436Z,882.48
2018-12-10T03:02:31.575Z,882.47
2018-12-10T03:04:24.931Z,882.48
2018-12-10T03:05:24.872Z,882.40
2018-12-10T03:07:18.550Z,882.43
2018-12-10T03:08:18.234Z,882.44
2018-12-10T03:10:11.345Z,882.39
2018-12-10T03:11:11.554Z,882.41
2018-12-10T03:13:04.758Z,882.46
2018-12-10T03:14:04.419Z,882.40
2018-12-10T03:15:58.061Z,882.41
2018-12-10T03:16:57.782Z,882.40
2018-12-10T03:18:51.360Z,882.43
2018-12-10T03:19:51.183Z,882.35
2018-12-10T03:21:44.567Z,882.37
2018-12-10T03:22:44.584Z,882.36
2018-12-10T03:26:09.834Z,882.31
2018-12-10T03:27:09.628Z,882.30
2018-12-10T03:29:03.830Z,882.29
2018-12-10T03:30:03.797Z,882.30
2018-12-10T03:31:57.818Z,882.34
2018-12-10T03:32:57.181Z,882.33
2018-12-10T03:34:50.888Z,882.41
2018-12-10T03:35:50.930Z,882.36
2018-12-10T03:37:44.405Z,882.39
2018-12-10T03:38:43.830Z,882.36
2018-12-10T03:41:37.549Z,882.26
2018-12-10T03:43:31.255Z,882.27
2018-12-10T03:44:31.070Z,882.25
2018-12-10T03:46:24.493Z,882.26
2018-12-10T03:47:24.046Z,882.23
2018-12-10T03:49:17.908Z,882.27
2018-12-10T03:50:17.751Z,882.22
2018-12-10T03:52:11.333Z,882.18
2018-12-10T03:53:10.758Z,882.20
2018-12-10T03:55:04.633Z,882.14
2018-12-10T03:56:04.478Z,882.22
2018-12-10T03:58:18.877Z,882.10
2018-12-10T03:58:57.439Z,882.16
2018-12-10T04:00:51.603Z,882.14
2018-12-10T04:01:51.100Z,882.15
2018-12-10T04:05:16.779Z,882.12
2018-12-10T04:06:16.497Z,882.13
2018-12-10T04:08:12.664Z,882.12
2018-12-10T04:09:09.853Z,882.09
2018-12-10T04:11:03.458Z,882.16
2018-12-10T04:12:02.888Z,882.10
2018-12-10T04:13:56.799Z,882.09
2018-12-10T04:14:56.603Z,882.10
2018-12-10T04:16:49.945Z,882.14
2018-12-10T04:17:49.604Z,882.16
2018-12-10T04:19:43.283Z,882.14
2018-12-10T04:20:42.910Z,882.10
2018-12-10T04:22:36.772Z,882.15
2018-12-10T04:23:36.659Z,882.14
2018-12-10T04:25:30.169Z,882.09
2018-12-10T04:26:29.633Z,882.09
2018-12-10T04:27:29.984Z,882.13
2018-12-10T04:28:29.583Z,882.08
2018-12-10T04:29:29.973Z,882.12
2018-12-10T04:30:29.577Z,882.10
2018-12-10T04:31:29.953Z,882.05
2018-12-10T04:32:29.913Z,882.04
2018-12-10T04:33:29.586Z,882.03
2018-12-10T04:34:29.919Z,881.99
2018-12-10T04:35:29.569Z,881.99
2018-12-10T04:36:29.533Z,882.02
2018-12-10T04:37:29.578Z,881.99
2018-12-10T04:38:29.552Z,882.00
2018-12-10T04:39:29.524Z,881.98
2018-12-10T04:40:29.892Z,882.00
2018-12-10T04:41:29.501Z,881.98
2018-12-10T04:42:29.825Z,881.97
2018-12-10T04:43:29.872Z,881.97
2018-12-10T04:44:29.865Z,881.92
2018-12-10T04:45:29.836Z,881.95
2018-12-10T04:46:29.847Z,881.94
2018-12-10T04:47:29.502Z,881.89
2018-12-10T04:48:29.452Z,881.89
2018-12-10T04:49:29.811Z,881.88
2018-12-10T04:50:29.799Z,881.89
2018-12-10T04:51:29.792Z,881.88
2018-12-10T04:52:29.795Z,881.87
2018-12-10T04:53:29.749Z,881.87
2018-12-10T04:54:29.747Z,881.82
2018-12-10T04:55:30.198Z,881.81
2018-12-10T04:56:29.698Z,881.79
2018-12-10T04:57:29.416Z,881.81
2018-12-10T04:58:29.766Z,881.81
2018-12-10T04:59:29.707Z,881.81
2018-12-10T05:00:29.376Z,881.74
2018-12-10T05:01:29.698Z,881.73
2018-12-10T05:02:29.691Z,881.77
2018-12-10T05:03:29.711Z,881.76
2018-12-10T05:04:29.697Z,881.71
2018-12-10T05:05:29.381Z,881.75
2018-12-10T05:06:29.673Z,881.73
2018-12-10T05:07:29.702Z,881.69
2018-12-10T05:08:29.703Z,881.70
2018-12-10T05:09:29.313Z,881.70
2018-12-10T05:10:29.319Z,881.69
2018-12-10T05:11:29.293Z,881.64
2018-12-10T05:12:29.646Z,881.63
2018-12-10T05:13:29.667Z,881.62
2018-12-10T05:14:29.325Z,881.61
2018-12-10T05:15:29.599Z,881.57
2018-12-10T05:16:29.256Z,881.60
2018-12-10T05:17:29.265Z,881.58
2018-12-10T05:18:29.250Z,881.58
2018-12-10T05:19:29.265Z,881.55
2018-12-10T05:20:29.584Z,881.49
2018-12-10T05:21:29.254Z,881.50
2018-12-10T05:22:29.241Z,881.49
2018-12-10T05:23:29.198Z,881.51
2018-12-10T05:24:29.561Z,881.45
2018-12-10T05:25:29.212Z,881.43
2018-12-10T05:26:29.509Z,881.41
2018-12-10T05:27:29.525Z,881.39
2018-12-10T05:28:29.641Z,881.43
2018-12-10T05:29:29.511Z,881.40
2018-12-10T05:30:29.501Z,881.45
2018-12-10T05:31:29.481Z,881.44
2018-12-10T05:32:29.131Z,881.38
2018-12-10T05:33:29.493Z,881.45
2018-12-10T05:34:29.484Z,881.41
2018-12-10T05:35:29.137Z,881.39
2018-12-10T05:36:29.458Z,881.36
2018-12-10T05:37:29.131Z,881.38
2018-12-10T05:38:29.432Z,881.37
2018-12-10T05:39:29.459Z,881.32
2018-12-10T05:40:29.448Z,881.34
2018-12-10T05:41:29.090Z,881.34
2018-12-10T05:42:29.119Z,881.34
2018-12-10T05:43:29.457Z,881.30
2018-12-10T05:44:29.398Z,881.30
2018-12-10T05:45:29.070Z,881.29
2018-12-10T05:46:29.391Z,881.28
2018-12-10T05:47:29.414Z,881.30
2018-12-10T05:48:29.024Z,881.34
2018-12-10T05:49:29.415Z,881.30
2018-12-10T05:50:29.400Z,881.30
2018-12-10T05:51:29.048Z,881.25
2018-12-10T05:52:29.347Z,881.27
2018-12-10T05:53:29.328Z,881.28
2018-12-10T05:54:29.366Z,881.28
2018-12-10T05:55:29.333Z,881.24
2018-12-10T05:56:29.328Z,881.23
2018-12-10T05:57:29.295Z,881.25
2018-12-10T05:58:28.952Z,881.27
2018-12-10T05:59:28.954Z,881.26
2018-12-10T06:00:28.968Z,881.25
2018-12-10T06:01:29.318Z,881.25
2018-12-10T06:02:28.960Z,881.23
2018-12-10T06:03:29.258Z,881.21
2018-12-10T06:04:29.266Z,881.24
2018-12-10T06:05:28.941Z,881.21
2018-12-10T06:06:29.006Z,881.23
2018-12-10T06:07:29.279Z,881.21
2018-12-10T06:08:28.904Z,881.14
2018-12-10T06:09:28.885Z,881.20
2018-12-10T06:10:29.247Z,881.17
2018-12-10T06:11:28.910Z,881.22
2018-12-10T06:12:28.892Z,881.16
2018-12-10T06:13:28.893Z,881.14
2018-12-10T06:14:28.882Z,881.17
2018-12-10T06:15:29.194Z,881.10
2018-12-10T06:16:28.870Z,881.15
2018-12-10T06:17:28.833Z,881.13
2018-12-10T06:18:29.213Z,881.09
2018-12-10T06:19:28.834Z,881.06
2018-12-10T06:20:29.164Z,881.09
2018-12-10T06:21:28.801Z,881.06
2018-12-10T06:22:29.150Z,881.08
2018-12-10T06:23:28.795Z,881.05
2018-12-10T06:24:29.120Z,881.03
2018-12-10T06:25:29.127Z,881.07
2018-12-10T06:26:29.114Z,881.05
2018-12-10T06:27:28.780Z,881.08
2018-12-10T06:28:28.788Z,881.03
2018-12-10T06:29:29.103Z,881.06
2018-12-10T06:30:28.728Z,881.06
2018-12-10T06:31:28.737Z,881.06
2018-12-10T06:32:28.759Z,881.03
2018-12-10T06:33:28.717Z,881.08
2018-12-10T06:36:00.959Z,881.00
2018-12-10T06:37:01.127Z,880.95
2018-12-10T06:38:54.645Z,881.03
2018-12-10T06:39:54.264Z,880.99
2018-12-10T06:41:48.470Z,880.95
2018-12-10T06:42:47.627Z,881.00
2018-12-10T06:44:40.984Z,880.97
2018-12-10T06:45:41.317Z,881.07
2018-12-10T06:47:34.552Z,880.99
2018-12-10T06:48:34.651Z,881.04
2018-12-10T06:50:28.610Z,881.04
2018-12-10T06:51:28.039Z,881.02
2018-12-10T06:53:21.543Z,880.94
2018-12-10T06:54:21.316Z,880.96
2018-12-10T06:56:14.935Z,881.04
2018-12-10T06:57:14.723Z,880.95
2018-12-10T06:59:08.882Z,881.03
2018-12-10T07:00:08.022Z,881.02
2018-12-10T07:02:01.030Z,881.01
2018-12-10T07:03:01.378Z,881.00
2018-12-10T07:04:54.592Z,881.02
2018-12-10T07:05:54.396Z,880.97
2018-12-10T07:07:48.353Z,880.98
2018-12-10T07:08:48.093Z,881.02
2018-12-10T07:10:41.861Z,880.98
2018-12-10T07:11:41.442Z,881.02
2018-12-10T07:13:34.048Z,880.98
2018-12-10T07:14:34.306Z,881.00
2018-12-10T07:16:27.507Z,880.98
2018-12-10T07:17:27.666Z,881.01
2018-12-10T07:19:21.040Z,881.00
2018-12-10T07:20:20.682Z,880.99
2018-12-10T07:22:14.192Z,880.98
2018-12-10T07:23:14.368Z,881.04
2018-12-10T07:24:14.343Z,880.96
2018-12-10T07:25:13.979Z,881.00
2018-12-10T07:26:14.322Z,880.98
2018-12-10T07:27:13.993Z,880.97
2018-12-10T07:28:14.303Z,880.96
2018-12-10T07:29:13.983Z,880.99
2018-12-10T07:30:13.966Z,880.94
2018-12-10T07:31:14.308Z,880.96
2018-12-10T07:32:14.250Z,880.94
2018-12-10T07:33:13.955Z,880.98
2018-12-10T07:34:14.246Z,880.94
2018-12-10T07:35:14.319Z,880.95
2018-12-10T07:36:14.273Z,880.98
2018-12-10T07:37:13.925Z,880.98
2018-12-10T07:38:13.924Z,881.02
2018-12-10T07:39:14.270Z,881.01
2018-12-10T07:40:13.933Z,881.02
2018-12-10T07:41:13.905Z,881.00
2018-12-10T07:42:13.843Z,880.98
2018-12-10T07:43:14.182Z,881.05
2018-12-10T07:44:14.169Z,881.04
2018-12-10T07:45:13.868Z,881.00
2018-12-10T07:46:13.869Z,880.97
2018-12-10T07:47:14.194Z,881.03
2018-12-10T07:48:14.169Z,881.02
2018-12-10T07:49:14.163Z,881.00
2018-12-10T07:50:14.188Z,881.00
2018-12-10T07:51:14.162Z,881.05
2018-12-10T07:52:14.128Z,881.02
2018-12-10T07:53:14.169Z,881.01
2018-12-10T07:54:13.810Z,881.03
2018-12-10T07:55:13.799Z,881.03
2018-12-10T07:56:13.794Z,881.00
2018-12-10T07:57:13.754Z,880.99
2018-12-10T07:58:13.750Z,881.01
2018-12-10T07:59:13.778Z,881.03
2018-12-10T08:00:14.093Z,881.02
2018-12-10T08:01:13.752Z,881.02
2018-12-10T08:02:13.756Z,881.03
2018-12-10T08:03:13.707Z,881.04
2018-12-10T08:04:13.693Z,880.99
2018-12-10T08:05:13.724Z,881.06
2018-12-10T08:06:14.040Z,881.06
2018-12-10T08:07:14.033Z,881.06
2018-12-10T08:08:14.076Z,881.07
2018-12-10T08:09:13.674Z,881.06
2018-12-10T08:10:13.702Z,881.07
2018-12-10T08:11:13.681Z,881.04
2018-12-10T08:12:13.695Z,881.04
2018-12-10T08:13:13.995Z,881.07
2018-12-10T08:14:13.993Z,881.06
2018-12-10T08:15:13.652Z,881.05
2018-12-10T08:16:13.962Z,881.06
2018-12-10T08:17:13.641Z,881.03
2018-12-10T08:18:13.635Z,881.08
2018-12-10T08:19:13.591Z,881.11
2018-12-10T08:20:13.953Z,881.10
2018-12-10T08:21:13.929Z,881.03
2018-12-10T08:22:14.017Z,881.10
2018-12-10T08:23:13.964Z,881.06
2018-12-10T08:24:13.590Z,881.01
2018-12-10T08:25:13.580Z,881.03
2018-12-10T08:26:13.539Z,881.08
2018-12-10T08:27:13.876Z,881.11
2018-12-10T08:28:13.928Z,881.06
2018-12-10T08:29:13.536Z,881.08
2018-12-10T08:30:13.567Z,881.07
2018-12-10T08:31:13.548Z,881.09
2018-12-10T08:32:13.870Z,881.02
2018-12-10T08:33:13.529Z,881.07
2018-12-10T08:34:13.498Z,881.06
2018-12-10T08:35:13.515Z,881.08
2018-12-10T08:36:13.873Z,881.09
2018-12-10T08:37:13.825Z,881.09
2018-12-10T08:38:13.808Z,881.09
2018-12-10T08:39:13.504Z,881.06
2018-12-10T08:40:13.481Z,881.09
2018-12-10T08:41:13.837Z,881.04
2018-12-10T08:42:13.785Z,881.03
2018-12-10T08:43:13.468Z,881.06
2018-12-10T08:44:13.452Z,881.09
2018-12-10T08:45:13.792Z,881.05
2018-12-10T08:46:13.419Z,881.12
2018-12-10T08:47:16.182Z,881.13
2018-12-10T08:48:13.734Z,881.09
2018-12-10T08:49:13.397Z,881.14
2018-12-10T08:50:13.769Z,881.14
2018-12-10T08:51:13.497Z,881.15
2018-12-10T08:52:13.726Z,881.12
2018-12-10T08:53:13.733Z,881.14
2018-12-10T08:54:13.383Z,881.18
2018-12-10T08:55:13.353Z,881.17
2018-12-10T08:56:13.688Z,881.17
2018-12-10T08:57:13.817Z,881.20
2018-12-10T08:58:13.361Z,881.22
2018-12-10T08:59:13.337Z,881.18
2018-12-10T09:00:13.670Z,881.22
2018-12-10T09:01:13.297Z,881.29
2018-12-10T09:02:13.690Z,881.26
2018-12-10T09:03:13.645Z,881.30
2018-12-10T09:04:13.318Z,881.25
2018-12-10T09:05:13.300Z,881.27
2018-12-10T09:06:13.657Z,881.30
2018-12-10T09:07:13.605Z,881.30
2018-12-10T09:08:13.638Z,881.31
2018-12-10T09:09:13.237Z,881.26
2018-12-10T09:10:13.615Z,881.32
2018-12-10T09:11:13.399Z,881.28
2018-12-10T09:12:13.596Z,881.33
2018-12-10T09:13:13.255Z,881.37
2018-12-10T09:14:13.599Z,881.38
2018-12-10T09:15:13.586Z,881.41
2018-12-10T09:16:13.190Z,881.37
2018-12-10T09:17:13.233Z,881.41
2018-12-10T09:18:13.550Z,881.39
2018-12-10T09:19:13.565Z,881.39
2018-12-10T09:20:13.221Z,881.39
2018-12-10T09:21:13.157Z,881.44
2018-12-10T09:22:13.536Z,881.44
2018-12-10T09:23:13.545Z,881.44
2018-12-10T09:24:13.487Z,881.47
2018-12-10T09:25:13.481Z,881.48
2018-12-10T09:26:13.535Z,881.46
2018-12-10T09:27:13.146Z,881.49
2018-12-10T09:28:19.444Z,881.48
2018-12-10T09:29:13.136Z,881.51
2018-12-10T09:30:13.444Z,881.51
2018-12-10T09:31:13.125Z,881.52
2018-12-10T09:32:13.116Z,881.53
2018-12-10T09:33:13.109Z,881.53
2018-12-10T09:34:13.104Z,881.59
2018-12-10T09:35:13.108Z,881.56
2018-12-10T09:36:13.101Z,881.60
2018-12-10T09:37:13.446Z,881.60
2018-12-10T09:38:13.087Z,881.58
2018-12-10T09:39:13.366Z,881.60
2018-12-10T09:40:13.038Z,881.60
2018-12-10T09:41:13.050Z,881.59
2018-12-10T09:42:13.361Z,881.66
2018-12-10T09:43:13.360Z,881.61
2018-12-10T09:44:13.030Z,881.66
2018-12-10T09:45:13.364Z,881.61
2018-12-10T09:46:13.375Z,881.62
2018-12-10T09:47:13.354Z,881.59
2018-12-10T09:48:13.311Z,881.60
2018-12-10T09:49:13.320Z,881.65
2018-12-10T09:50:12.998Z,881.61
2018-12-10T09:51:12.947Z,881.62
2018-12-10T09:52:13.295Z,881.63
2018-12-10T09:53:13.314Z,881.67
2018-12-10T09:54:13.285Z,881.63
2018-12-10T09:55:13.279Z,881.68
2018-12-10T09:56:13.283Z,881.68
2018-12-10T09:57:13.300Z,881.66
2018-12-10T09:58:13.261Z,881.69
2018-12-10T09:59:13.228Z,881.67
2018-12-10T10:00:12.921Z,881.69
2018-12-10T10:01:12.876Z,881.66
2018-12-10T10:02:13.084Z,881.67
2018-12-10T10:03:13.230Z,881.64
2018-12-10T10:04:13.192Z,881.66
2018-12-10T10:05:13.218Z,881.68
2018-12-10T10:06:12.864Z,881.68
2018-12-10T10:07:13.164Z,881.69
2018-12-10T10:08:13.225Z,881.67
2018-12-10T10:09:12.867Z,881.69
2018-12-10T10:10:13.166Z,881.70
2018-12-10T10:11:12.839Z,881.70
2018-12-10T10:12:13.192Z,881.70
2018-12-10T10:13:13.172Z,881.70
2018-12-10T10:14:13.141Z,881.67
2018-12-10T10:15:13.143Z,881.70
2018-12-10T10:16:12.791Z,881.70
2018-12-10T10:17:12.796Z,881.70
2018-12-10T10:18:12.790Z,881.75
2018-12-10T10:19:13.132Z,881.72
2018-12-10T10:20:12.778Z,881.71
2018-12-10T10:21:13.098Z,881.72
2018-12-10T10:22:13.117Z,881.71
2018-12-10T10:23:12.717Z,881.71
2018-12-10T10:24:12.725Z,881.81
2018-12-10T10:25:12.743Z,881.73
2018-12-10T10:26:13.077Z,881.80
2018-12-10T10:27:12.714Z,881.76
2018-12-10T10:28:12.719Z,881.81
2018-12-10T10:29:13.063Z,881.83
2018-12-10T10:30:13.039Z,881.77
2018-12-10T10:31:12.660Z,881.82
2018-12-10T10:32:13.039Z,881.80
2018-12-10T10:33:13.014Z,881.82
2018-12-10T10:34:12.682Z,881.84
2018-12-10T10:36:44.661Z,881.81
2018-12-10T10:37:44.567Z,881.79
2018-12-10T10:39:36.935Z,881.82
2018-12-10T10:40:36.928Z,881.80
2018-12-10T10:42:29.141Z,881.88
2018-12-10T10:43:28.959Z,881.85
2018-12-10T10:45:22.270Z,881.83
2018-12-10T10:46:22.250Z,881.85
2018-12-10T10:48:16.280Z,881.85
2018-12-10T10:49:15.935Z,881.84
2018-12-10T10:51:09.326Z,881.83
2018-12-10T10:52:08.966Z,881.83
2018-12-10T10:54:02.414Z,881.86
2018-12-10T10:55:01.861Z,881.90
2018-12-10T10:56:54.211Z,881.91
2018-12-10T10:57:54.169Z,881.91
2018-12-10T10:59:47.982Z,881.89
2018-12-10T11:00:47.973Z,881.94
2018-12-10T11:02:40.871Z,881.92
2018-12-10T11:03:41.201Z,881.96
2018-12-10T11:05:34.745Z,881.92
2018-12-10T11:06:34.531Z,881.94
2018-12-10T11:08:27.581Z,881.96
2018-12-10T11:09:27.894Z,881.94
2018-12-10T11:11:21.476Z,881.95
2018-12-10T11:12:20.907Z,881.96
2018-12-10T11:14:14.584Z,881.98
2018-12-10T11:15:14.555Z,882.02
2018-12-10T11:17:07.112Z,881.98
2018-12-10T11:18:06.588Z,882.03
2018-12-10T11:19:59.469Z,882.04
2018-12-10T11:20:59.801Z,882.01
2018-12-10T11:22:53.074Z,882.00
2018-12-10T11:23:52.866Z,882.12
2018-12-10T11:25:45.217Z,882.05
2018-12-10T11:26:45.507Z,882.08
2018-12-10T11:28:37.769Z,882.06
2018-12-10T11:29:38.474Z,882.14
2018-12-10T11:31:30.911Z,882.11
2018-12-10T11:32:31.257Z,882.12
2018-12-10T11:34:24.816Z,882.10
2018-12-10T11:35:24.191Z,882.17
2018-12-10T11:37:18.543Z,882.12
2018-12-10T11:38:18.001Z,882.18
2018-12-10T11:40:11.604Z,882.15
2018-12-10T11:41:11.046Z,882.19
2018-12-10T11:43:04.726Z,882.17
2018-12-10T11:44:04.330Z,882.18
2018-12-10T11:45:58.875Z,882.20
2018-12-10T11:46:58.043Z,882.22
2018-12-10T11:48:51.371Z,882.22
2018-12-10T11:49:51.381Z,882.23
2018-12-10T11:51:44.933Z,882.23
2018-12-10T11:52:44.398Z,882.23
2018-12-10T11:54:38.094Z,882.24
2018-12-10T11:55:37.725Z,882.29
2018-12-10T11:57:31.292Z,882.28
2018-12-10T11:58:31.066Z,882.23
2018-12-10T12:00:24.536Z,882.23
2018-12-10T12:01:24.396Z,882.25
2018-12-10T12:03:18.337Z,882.23
2018-12-10T12:04:17.753Z,882.29
2018-12-10T12:06:10.125Z,882.29
2018-12-10T12:07:10.072Z,882.26
2018-12-10T12:09:04.116Z,882.25
2018-12-10T12:10:02.992Z,882.25
2018-12-10T12:11:56.340Z,882.28
2018-12-10T12:12:56.652Z,882.28
2018-12-10T12:14:49.248Z,882.27
2018-12-10T12:15:49.002Z,882.30
2018-12-10T12:17:41.373Z,882.25
2018-12-10T12:18:41.365Z,882.27
2018-12-10T12:20:34.891Z,882.31
2018-12-10T12:21:34.331Z,882.32
2018-12-10T12:23:27.605Z,882.34
2018-12-10T12:24:26.665Z,882.36
2018-12-10T12:26:20.538Z,882.30
2018-12-10T12:27:20.330Z,882.38
2018-12-10T12:29:13.772Z,882.30
2018-12-10T12:30:13.338Z,882.33
2018-12-10T12:32:05.802Z,882.33
2018-12-10T12:33:05.224Z,882.36
2018-12-10T12:34:57.900Z,882.31
2018-12-10T12:35:58.101Z,882.35
2018-12-10T12:37:52.190Z,882.32
2018-12-10T12:38:51.399Z,882.33
2018-12-10T12:40:45.146Z,882.36
2018-12-10T12:41:45.143Z,882.34
2018-12-10T12:43:38.293Z,882.32
2018-12-10T12:44:37.143Z,882.32
2018-12-10T12:46:30.481Z,882.35
2018-12-10T12:47:30.489Z,882.33
2018-12-10T12:49:23.386Z,882.30
2018-12-10T12:50:22.839Z,882.31
2018-12-10T12:52:16.197Z,882.32
2018-12-10T12:53:16.517Z,882.34
2018-12-10T12:55:08.762Z,882.29
2018-12-10T12:56:08.510Z,882.31
2018-12-10T12:58:02.243Z,882.30
2018-12-10T12:59:01.842Z,882.27
2018-12-10T13:00:59.752Z,882.32
2018-12-10T13:01:55.212Z,882.26
2018-12-10T13:03:48.930Z,882.27
2018-12-10T13:04:48.877Z,882.27
2018-12-10T13:06:42.089Z,882.32
2018-12-10T13:07:41.889Z,882.31
2018-12-10T13:09:35.269Z,882.37
2018-12-10T13:10:35.590Z,882.33
2018-12-10T13:12:28.820Z,882.35
2018-12-10T13:13:28.940Z,882.36
2018-12-10T13:15:21.972Z,882.33
2018-12-10T13:16:22.281Z,882.32
2018-12-10T13:18:16.428Z,882.31
2018-12-10T13:19:15.297Z,882.28
2018-12-10T13:21:09.549Z,882.28
2018-12-10T13:22:08.963Z,882.34
2018-12-10T13:24:02.610Z,882.30
2018-12-10T13:25:01.995Z,882.29
2018-12-10T13:26:55.341Z,882.24
2018-12-10T13:27:55.322Z,882.28
2018-12-10T13:29:48.001Z,882.25
2018-12-10T13:30:47.699Z,882.28
2018-12-10T13:32:41.065Z,882.25
2018-12-10T13:33:41.383Z,882.23
2018-12-10T13:36:34.399Z,882.25
2018-12-10T13:38:28.644Z,882.23
2018-12-10T13:39:27.728Z,882.23
2018-12-10T13:41:20.607Z,882.21
2018-12-10T13:42:20.066Z,882.24
2018-12-10T13:44:13.768Z,882.24
2018-12-10T13:45:13.384Z,882.24
2018-12-10T13:47:07.326Z,882.25
2018-12-10T13:48:06.740Z,882.25
2018-12-10T13:50:00.459Z,882.24
2018-12-10T13:51:00.439Z,882.22
2018-12-10T13:52:53.639Z,882.23
2018-12-10T13:53:53.769Z,882.24
2018-12-10T13:55:46.794Z,882.20
2018-12-10T13:56:46.808Z,882.18
2018-12-10T13:58:40.718Z,882.19
2018-12-10T13:59:40.134Z,882.19
2018-12-10T14:01:33.511Z,882.19
2018-12-10T14:02:33.497Z,882.21
2018-12-10T14:04:27.416Z,882.19
2018-12-10T14:05:26.807Z,882.19
2018-12-10T14:07:20.494Z,882.17
2018-12-10T14:08:20.153Z,882.17
2018-12-10T14:10:14.089Z,882.14
2018-12-10T14:11:13.523Z,882.14
2018-12-10T14:13:07.455Z,882.10
2018-12-10T14:14:07.170Z,882.11
2018-12-10T14:16:00.415Z,882.10
2018-12-10T14:17:00.524Z,882.09
2018-12-10T14:18:52.516Z,882.10
2018-12-10T14:19:52.886Z,882.08
2018-12-10T14:21:46.447Z,882.09
2018-12-10T14:22:45.850Z,882.08
2018-12-10T14:24:39.549Z,882.09
2018-12-10T14:25:39.578Z,882.10
2018-12-10T14:27:33.072Z,882.08
2018-12-10T14:28:32.557Z,882.12
2018-12-10T14:30:26.520Z,882.09
2018-12-10T14:31:27.407Z,882.10
2018-12-10T14:33:19.783Z,882.10
2018-12-10T14:34:19.227Z,882.09
2018-12-10T14:36:12.923Z,882.09
2018-12-10T14:37:12.552Z,882.10
2018-12-10T14:39:06.648Z,882.12
2018-12-10T14:40:06.821Z,882.09
2018-12-10T14:42:00.116Z,882.13
2018-12-10T14:43:00.157Z,882.09
2018-12-10T14:44:53.714Z,882.09
2018-12-10T14:45:53.144Z,882.10
2018-12-10T14:47:46.844Z,882.10
2018-12-10T14:48:46.485Z,882.09
2018-12-10T14:50:40.051Z,882.08
2018-12-10T14:51:40.018Z,882.11
2018-12-10T14:53:33.141Z,882.10
2018-12-10T14:54:33.518Z,882.13
2018-12-10T14:56:27.043Z,882.10
2018-12-10T14:57:26.474Z,882.11
2018-12-10T14:59:20.223Z,882.12
2018-12-10T15:00:20.168Z,882.13
2018-12-10T15:02:13.770Z,882.08
2018-12-10T15:03:13.150Z,882.09
2018-12-10T15:05:06.523Z,882.13
2018-12-10T15:06:06.827Z,882.08
2018-12-10T15:08:00.408Z,882.08
2018-12-10T15:08:59.841Z,882.08
2018-12-10T15:10:52.516Z,882.09
2018-12-10T15:11:52.525Z,882.09
2018-12-10T15:13:45.743Z,882.09
2018-12-10T15:14:45.844Z,882.12
2018-12-10T15:16:39.254Z,882.13
2018-12-10T15:17:39.191Z,882.13
2018-12-10T15:19:32.797Z,882.11
2018-12-10T15:20:32.244Z,882.08
2018-12-10T15:22:24.570Z,882.05
2018-12-10T15:23:24.886Z,882.06
2018-12-10T15:25:18.160Z,882.05
2018-12-10T15:26:17.896Z,882.05
2018-12-10T15:28:11.264Z,882.04
2018-12-10T15:29:11.597Z,882.06
2018-12-10T15:31:04.839Z,882.05
2018-12-10T15:32:04.570Z,882.08
2018-12-10T15:33:58.282Z,882.04
2018-12-10T15:34:58.276Z,882.08
2018-12-10T15:36:51.856Z,882.08
2018-12-10T15:37:51.278Z,882.06
2018-12-10T15:39:45.195Z,882.11
2018-12-10T15:40:44.929Z,882.12